Time;durP1;ratioP1;P1;durP2;ratioP2;P2;SDS_P1;SDS_P2;PMS_P1;PMS_P2;Temp;Humidity;BMP_temperature;BMP_pressure;BME280_temperature;BME280_humidity;BME280_pressure;Samples;Min_cycle;Max_cycle;Signal;HPM_P1;HPM_P2
2023/07/18 00:00:17;;;;;;;18.10;7.10;;;;;;;22.84;67.75;98891.32;68045;1274;1017105;-66
2023/07/18 00:03:39;;;;;;;15.90;6.30;;;;;;;22.77;68.08;98895.19;68021;1275;1016398;-66
2023/07/18 00:06:45;;;;;;;17.50;6.30;;;;;;;23.13;66.02;98895.77;68005;1274;1016112;-71
2023/07/18 00:09:47;;;;;;;19.50;7.70;;;;;;;23.19;65.68;98893.02;68009;1274;1016384;-67
2023/07/18 00:12:50;;;;;;;21.10;8.10;;;;;;;22.89;67.68;98897.54;68044;1274;1016242;-66
2023/07/18 00:15:53;;;;;;;18.20;6.40;;;;;;;22.85;67.78;98899.62;67996;1274;1016023;-71
2023/07/18 00:18:56;;;;;;;16.50;4.50;;;;;;;22.89;66.42;98899.53;68012;1274;1016259;-65
2023/07/18 00:21:59;;;;;;;14.70;3.90;;;;;;;22.76;66.96;98898.06;68018;1274;1016324;-71
2023/07/18 00:25:03;;;;;;;15.60;3.40;;;;;;;22.62;67.60;98898.73;67982;1274;1016488;-65
2023/07/18 00:28:09;;;;;;;10.80;2.40;;;;;;;22.65;67.48;98904.27;67973;1274;1016479;-65
2023/07/18 00:31:12;;;;;;;13.80;3.40;;;;;;;22.73;66.68;98912.34;67965;1274;1016364;-66
2023/07/18 00:34:15;;;;;;;15.90;3.60;;;;;;;22.75;66.12;98913.02;67979;1274;1016147;-66
2023/07/18 00:37:19;;;;;;;34.50;3.20;;;;;;;22.79;65.49;98915.20;67945;1274;1015982;-65
2023/07/18 00:40:22;;;;;;;24.50;3.00;;;;;;;22.98;64.09;98917.27;67988;1274;1016118;-65
2023/07/18 00:43:26;;;;;;;10.90;2.80;;;;;;;23.06;62.99;98911.76;68050;1274;1016487;-65
2023/07/18 00:46:36;;;;;;;15.20;3.60;;;;;;;22.99;63.21;98912.25;67918;1274;1016373;-65
2023/07/18 00:49:41;;;;;;;14.10;4.30;;;;;;;22.84;63.47;98913.45;67985;1274;1016390;-65
2023/07/18 00:52:46;;;;;;;18.90;6.50;;;;;;;22.81;63.85;98910.04;68049;1274;1016509;-65
2023/07/18 00:55:50;;;;;;;21.90;6.70;;;;;;;22.90;63.87;98908.13;68019;1274;1016494;-65
2023/07/18 00:58:56;;;;;;;21.40;7.40;;;;;;;22.99;63.48;98903.59;68034;1274;1016247;-65
2023/07/18 01:01:59;;;;;;;19.50;6.20;;;;;;;22.86;63.78;98901.21;68022;1274;1016154;-65
2023/07/18 01:05:04;;;;;;;21.80;7.50;;;;;;;22.94;63.63;98897.57;68047;1275;1018345;-68
2023/07/18 01:08:06;;;;;;;24.80;8.50;;;;;;;22.99;63.87;98895.23;67986;1275;1016311;-65
2023/07/18 01:11:09;;;;;;;;;;;;;;;22.95;63.57;98889.72;68004;1274;1016345;-65
2023/07/18 01:14:12;;;;;;;21.90;8.30;;;;;;;22.80;63.98;98887.69;67988;1274;1016397;-72
2023/07/18 01:17:15;;;;;;;22.00;8.90;;;;;;;22.78;64.39;98890.38;67999;1274;1016639;-70
2023/07/18 01:20:18;;;;;;;17.40;6.50;;;;;;;23.00;64.64;98895.13;68012;1274;1016491;-66
2023/07/18 01:23:24;;;;;;;17.60;6.70;;;;;;;23.04;63.83;98895.32;67934;1274;1016064;-71
2023/07/18 01:26:26;;;;;;;21.40;7.20;;;;;;;23.25;62.96;98897.15;67982;1274;1016860;-66
2023/07/18 01:29:29;;;;;;;21.40;6.40;;;;;;;22.97;64.06;98900.81;68025;1274;1016154;-65
2023/07/18 01:32:33;;;;;;;25.40;9.70;;;;;;;22.88;64.24;98903.05;67976;1274;1017640;-71
2023/07/18 01:35:37;;;;;;;30.10;9.60;;;;;;;22.78;66.81;98911.39;67953;1274;1016286;-68
2023/07/18 01:38:40;;;;;;;26.40;9.50;;;;;;;23.01;66.36;98914.62;68001;1274;1016435;-67
2023/07/18 01:41:47;;;;;;;24.00;10.80;;;;;;;23.10;69.85;98926.09;67981;1274;1016477;-66
2023/07/18 01:44:50;;;;;;;26.70;13.20;;;;;;;23.28;72.27;98932.69;67992;1274;1016823;-66
2023/07/18 01:47:52;;;;;;;30.00;14.40;;;;;;;23.40;76.89;98937.21;68029;1274;1016314;-66
2023/07/18 01:50:55;;;;;;;29.20;14.50;;;;;;;23.68;76.38;98954.06;67996;1274;1016418;-67
2023/07/18 01:53:59;;;;;;;31.20;14.40;;;;;;;23.83;79.38;98959.65;68015;1275;1016480;-66
2023/07/18 01:57:05;;;;;;;28.50;13.90;;;;;;;23.90;81.09;98956.55;67945;1274;1016434;-66
2023/07/18 02:00:19;;;;;;;28.30;14.50;;;;;;;23.85;83.86;98968.94;67980;1274;1016422;-67
2023/07/18 02:03:22;;;;;;;28.40;13.60;;;;;;;23.99;84.69;98977.32;68064;1274;1016566;-69
2023/07/18 02:06:26;;;;;;;28.90;12.60;;;;;;;23.97;84.01;98979.11;67976;1274;1017011;-68
2023/07/18 02:09:29;;;;;;;;;;;;;;;24.06;83.34;98985.48;68046;1274;1015588;-70
2023/07/18 02:12:32;;;;;;;24.70;11.00;;;;;;;24.07;81.35;98995.29;67991;1274;1016657;-70
2023/07/18 02:15:35;;;;;;;26.70;10.80;;;;;;;23.98;81.11;99000.92;67999;1275;1016422;-70
2023/07/18 02:18:37;;;;;;;26.70;9.60;;;;;;;24.33;76.37;99002.86;67993;1274;1016439;-69
2023/07/18 02:21:41;;;;;;;24.20;9.90;;;;;;;24.42;73.74;99010.30;68028;1275;1017506;-65
2023/07/18 02:24:44;;;;;;;23.20;8.90;;;;;;;24.42;72.01;99011.48;67978;1274;1016359;-70
2023/07/18 02:27:47;;;;;;;22.50;8.40;;;;;;;24.33;71.10;99025.07;67963;1274;1016454;-66
2023/07/18 02:30:50;;;;;;;22.60;8.20;;;;;;;24.37;69.32;99034.20;67982;1274;1016451;-66
2023/07/18 02:33:53;;;;;;;23.00;8.20;;;;;;;24.28;68.54;99045.48;68016;1274;1015865;-70
2023/07/18 02:36:56;;;;;;;22.50;7.80;;;;;;;24.25;68.07;99058.70;67957;1274;1016422;-68
2023/07/18 02:40:00;;;;;;;21.60;6.80;;;;;;;24.15;65.89;99080.55;67960;1274;1017163;-66
2023/07/18 02:43:02;;;;;;;19.90;6.50;;;;;;;24.06;65.01;99084.58;67968;1274;1016457;-66
2023/07/18 02:46:06;;;;;;;23.10;6.60;;;;;;;23.97;64.17;99090.77;67963;1274;1016536;-67
2023/07/18 02:49:09;;;;;;;20.00;5.80;;;;;;;23.98;61.93;99099.52;67983;1274;1016420;-66
2023/07/18 02:52:12;;;;;;;19.70;5.90;;;;;;;24.10;61.07;99096.79;67935;1274;1016073;-70
2023/07/18 02:55:15;;;;;;;18.30;5.50;;;;;;;24.22;60.10;99083.13;68014;1274;1018353;-69
2023/07/18 02:58:18;;;;;;;21.60;5.60;;;;;;;24.06;58.58;99084.34;67969;1275;1016369;-65
2023/07/18 03:01:22;;;;;;;18.30;5.30;;;;;;;24.06;59.36;99091.74;68008;1274;1016294;-70
2023/07/18 03:04:25;;;;;;;17.30;5.00;;;;;;;23.90;58.79;99095.44;68028;1274;1016010;-70
2023/07/18 03:07:28;;;;;;;18.30;5.10;;;;;;;23.79;58.83;99100.34;67979;1274;1016653;-66
2023/07/18 03:10:31;;;;;;;18.70;4.90;;;;;;;23.80;57.94;99108.66;67989;1274;1016059;-66
2023/07/18 03:13:34;;;;;;;19.20;4.60;;;;;;;23.73;58.72;99119.51;68010;1275;1016422;-65
2023/07/18 03:16:40;;;;;;;22.10;5.60;;;;;;;23.85;58.10;99122.08;67916;1274;1017248;-66
2023/07/18 03:19:43;;;;;;;20.90;4.40;;;;;;;23.92;57.25;99124.17;68021;1274;1017085;-70
2023/07/18 03:22:47;;;;;;;21.20;4.80;;;;;;;24.17;56.75;99133.94;68012;1274;1015951;-66
2023/07/18 03:25:50;;;;;;;20.40;5.40;;;;;;;24.16;56.10;99129.14;68038;1274;1016439;-65
2023/07/18 03:28:55;;;;;;;15.40;4.50;;;;;;;24.25;56.65;99123.51;68043;1274;1016275;-65
2023/07/18 03:31:59;;;;;;;19.30;5.00;;;;;;;24.21;56.66;99119.87;68045;1274;1016326;-66
2023/07/18 03:35:02;;;;;;;18.40;5.00;;;;;;;24.34;56.31;99126.35;67996;1274;1016217;-65
2023/07/18 03:38:06;;;;;;;14.40;4.20;;;;;;;24.35;56.12;99129.33;67989;1275;1017577;-65
2023/07/18 03:41:08;;;;;;;16.20;4.20;;;;;;;24.08;57.16;99127.73;67970;1275;1016167;-65
2023/07/18 03:44:16;;;;;;;18.20;4.90;;;;;;;23.87;57.46;99124.00;67995;1274;1016427;-65
2023/07/18 03:47:19;;;;;;;16.40;4.30;;;;;;;23.79;58.67;99118.77;67991;1274;1016028;-65
2023/07/18 03:50:23;;;;;;;16.20;4.60;;;;;;;24.03;58.34;99127.89;68028;1274;1018703;-70
2023/07/18 03:53:27;;;;;;;19.60;4.60;;;;;;;24.25;57.84;99129.96;67963;1274;1017974;-70
2023/07/18 03:56:31;;;;;;;17.20;4.30;;;;;;;24.75;56.57;99135.30;68021;1274;1017084;-65
2023/07/18 03:59:34;;;;;;;15.40;4.80;;;;;;;25.06;55.93;99135.33;68047;1251;1016818;-65
2023/07/18 04:02:37;;;;;;;15.70;4.40;;;;;;;25.20;56.63;99136.16;67958;1274;1019550;-70
2023/07/18 04:05:40;;;;;;;14.50;4.00;;;;;;;25.18;56.50;99139.07;67983;1274;1015860;-71
2023/07/18 04:08:43;;;;;;;19.30;4.70;;;;;;;25.26;55.92;99139.23;67984;1274;1016201;-70
2023/07/18 04:11:47;;;;;;;21.10;4.80;;;;;;;25.63;55.04;99139.46;68041;1274;1016393;-70
2023/07/18 04:14:50;;;;;;;14.20;4.30;;;;;;;25.76;54.96;99150.77;68018;1274;1016437;-65
2023/07/18 04:17:53;;;;;;;16.10;4.80;;;;;;;25.49;57.42;99147.02;68031;1274;1016244;-65
2023/07/18 04:20:56;;;;;;;15.20;4.30;;;;;;;25.23;56.19;99162.05;67979;1274;1016380;-65
2023/07/18 04:23:58;;;;;;;18.90;4.90;;;;;;;25.00;56.06;99163.20;67931;1274;1015957;-65
2023/07/18 04:27:01;;;;;;;15.80;4.20;;;;;;;24.96;55.95;99166.16;67963;1275;1019526;-65
2023/07/18 04:30:05;;;;;;;19.30;4.10;;;;;;;24.82;56.35;99166.06;68012;1274;1016375;-65
2023/07/18 04:33:12;;;;;;;23.60;4.60;;;;;;;24.84;56.65;99165.31;67979;1275;1016416;-66
2023/07/18 04:36:15;;;;;;;15.30;4.30;;;;;;;24.94;56.26;99164.61;68023;1274;1015846;-70
2023/07/18 04:39:19;;;;;;;25.50;4.80;;;;;;;24.83;56.38;99167.29;68033;1274;1016892;-65
2023/07/18 04:42:22;;;;;;;23.10;4.80;;;;;;;25.01;56.65;99172.00;68001;1275;1016437;-66
2023/07/18 04:45:24;;;;;;;20.30;5.00;;;;;;;25.32;55.32;99179.61;68013;1275;1016670;-69
2023/07/18 04:48:28;;;;;;;18.60;4.60;;;;;;;25.18;53.97;99184.89;67927;1274;1016308;-66
2023/07/18 04:51:30;;;;;;;18.30;4.60;;;;;;;25.14;55.10;99189.86;67982;1274;1018531;-66
2023/07/18 04:54:33;;;;;;;15.70;4.40;;;;;;;25.20;54.20;99192.92;67994;1275;1016335;-65
2023/07/18 04:57:36;;;;;;;13.00;4.20;;;;;;;25.25;53.27;99200.79;67983;1274;1016383;-69
2023/07/18 05:00:39;;;;;;;16.60;4.30;;;;;;;25.21;54.03;99205.51;67997;1275;1016313;-66
2023/07/18 05:03:42;;;;;;;14.50;4.30;;;;;;;25.37;53.26;99207.95;68026;1275;1017621;-66
2023/07/18 05:06:45;;;;;;;12.80;3.70;;;;;;;25.41;53.17;99206.67;67983;1275;1016387;-69
2023/07/18 05:09:48;;;;;;;17.90;4.00;;;;;;;25.59;53.05;99209.92;68016;1275;1016338;-70
2023/07/18 05:12:55;;;;;;;15.60;4.60;;;;;;;25.66;52.74;99212.66;67982;1275;1016389;-66
2023/07/18 05:15:58;;;;;;;19.00;4.40;;;;;;;25.69;53.28;99216.46;67963;1274;1016198;-67
2023/07/18 05:19:01;;;;;;;17.60;4.50;;;;;;;25.78;52.33;99215.36;68047;1275;1016506;-66
2023/07/18 05:22:04;;;;;;;14.00;3.80;;;;;;;25.86;52.30;99219.61;68027;1274;1016156;-66
2023/07/18 05:25:06;;;;;;;14.60;4.10;;;;;;;25.95;50.33;99223.48;68012;1275;1018953;-69
2023/07/18 05:28:09;;;;;;;15.50;3.90;;;;;;;25.93;50.80;99228.62;67977;1275;1016450;-66
2023/07/18 05:31:13;;;;;;;16.60;4.00;;;;;;;26.19;49.97;99228.08;68014;1274;1016380;-66
2023/07/18 05:34:15;;;;;;;13.30;3.80;;;;;;;26.15;47.74;99231.73;67986;1274;1017620;-67
2023/07/18 05:37:18;;;;;;;15.00;3.90;;;;;;;26.02;48.51;99234.30;67929;1274;1016493;-69
2023/07/18 05:40:22;;;;;;;16.50;4.60;;;;;;;26.26;48.16;99235.28;68033;1274;1016303;-69
2023/07/18 05:43:26;;;;;;;15.90;4.00;;;;;;;26.39;48.70;99238.98;68021;1275;1016471;-67
2023/07/18 05:46:29;;;;;;;16.40;4.10;;;;;;;26.37;47.21;99237.68;68019;1274;1016501;-66
2023/07/18 05:49:32;;;;;;;15.90;3.90;;;;;;;26.43;48.77;99240.16;67989;1275;1016227;-69
2023/07/18 05:52:36;;;;;;;14.90;3.90;;;;;;;26.19;47.82;99241.98;67954;1275;1016444;-70
2023/07/18 05:55:39;;;;;;;17.10;4.40;;;;;;;26.46;48.13;99242.88;68007;1274;1016143;-67
2023/07/18 05:58:43;;;;;;;14.40;4.10;;;;;;;26.76;46.90;99243.84;68025;1275;1016089;-67
2023/07/18 06:01:46;;;;;;;16.20;4.70;;;;;;;27.02;47.22;99245.91;67973;1275;1016175;-70
2023/07/18 06:04:50;;;;;;;15.80;4.10;;;;;;;27.37;46.76;99244.02;67999;1275;1016408;-67
2023/07/18 06:07:54;;;;;;;15.10;4.00;;;;;;;27.66;46.69;99243.45;68029;1274;1016404;-67
2023/07/18 06:10:58;;;;;;;13.30;3.70;;;;;;;27.69;45.10;99244.52;68036;1275;1015959;-67
2023/07/18 06:14:01;;;;;;;14.10;3.80;;;;;;;27.80;44.79;99248.09;68036;1274;1016476;-67
2023/07/18 06:17:05;;;;;;;12.30;3.40;;;;;;;27.72;44.35;99251.33;67990;1274;1015757;-67
2023/07/18 06:20:11;;;;;;;14.60;3.90;;;;;;;27.60;43.78;99254.42;68036;1274;1016646;-67
2023/07/18 06:23:15;;;;;;;13.50;3.50;;;;;;;27.75;43.61;99256.92;67984;1274;1016485;-67
2023/07/18 06:26:19;;;;;;;13.60;3.60;;;;;;;27.99;43.70;99257.63;67976;1274;1016440;-67
2023/07/18 06:29:22;;;;;;;14.80;3.50;;;;;;;28.16;43.43;99257.25;68032;1274;1016165;-67
2023/07/18 06:32:28;;;;;;;14.70;4.00;;;;;;;28.29;42.92;99259.73;67994;1274;1016487;-69
2023/07/18 06:35:32;;;;;;;12.70;3.40;;;;;;;28.37;42.53;99267.29;65448;1276;6378780;-67
2023/07/18 06:38:35;;;;;;;13.70;3.70;;;;;;;28.50;41.55;99263.46;67980;1275;1016731;-69
2023/07/18 06:41:38;;;;;;;12.60;3.60;;;;;;;28.73;42.61;99266.70;68023;1274;1016487;-70
2023/07/18 06:44:41;;;;;;;16.50;3.80;;;;;;;28.97;41.43;99278.06;67983;1275;1016444;-70
2023/07/18 06:47:46;;;;;;;13.10;3.70;;;;;;;29.24;40.07;99282.80;71075;1275;1016286;-69
2023/07/18 06:50:53;;;;;;;19.80;3.90;;;;;;;29.25;39.76;99279.08;67975;1274;1016489;-67
2023/07/18 06:53:55;;;;;;;16.60;3.50;;;;;;;29.26;39.68;99283.08;68003;1274;1016435;-70
2023/07/18 06:56:59;;;;;;;13.30;3.60;;;;;;;29.27;38.01;99293.58;67966;1274;1016450;-70
2023/07/18 07:00:06;;;;;;;13.20;3.50;;;;;;;29.26;39.20;99291.26;68006;1274;1016497;-69
2023/07/18 07:03:09;;;;;;;13.10;3.70;;;;;;;29.44;38.42;99291.95;67986;1274;1016438;-67
2023/07/18 07:06:12;;;;;;;15.00;3.40;;;;;;;29.35;38.36;99290.91;68027;1274;1016226;-69
2023/07/18 07:09:16;;;;;;;15.50;3.60;;;;;;;29.20;38.75;99295.75;67975;1274;1016443;-69
2023/07/18 07:12:18;;;;;;;12.00;3.30;;;;;;;29.16;38.39;99296.08;67998;1274;1016681;-70
2023/07/18 07:15:21;;;;;;;13.60;3.60;;;;;;;29.19;38.48;99302.11;67972;1275;1016447;-67
2023/07/18 07:18:24;;;;;;;16.50;3.40;;;;;;;29.29;38.38;99300.15;68004;1274;1016352;-67
2023/07/18 07:21:27;;;;;;;13.10;3.40;;;;;;;29.29;37.27;99303.85;67988;1275;1016254;-68
2023/07/18 07:24:30;;;;;;;12.50;3.60;;;;;;;29.29;36.30;99306.27;67945;1274;1016199;-67
2023/07/18 07:27:33;;;;;;;14.00;3.20;;;;;;;29.22;36.91;99301.55;68001;1274;1016863;-67
2023/07/18 07:30:36;;;;;;;14.90;3.20;;;;;;;29.25;36.56;99301.80;68033;1275;1016387;-70
2023/07/18 07:33:39;;;;;;;12.20;3.20;;;;;;;29.21;35.92;99304.13;67951;1274;1016405;-69
2023/07/18 07:36:42;;;;;;;13.50;3.30;;;;;;;29.43;36.11;99304.09;68010;1274;1016442;-71
2023/07/18 07:39:44;;;;;;;9.40;3.30;;;;;;;29.64;35.53;99297.40;67992;1274;1016418;-70
2023/07/18 07:42:47;;;;;;;12.70;3.70;;;;;;;29.67;34.83;99298.98;68039;1274;1016753;-70
2023/07/18 07:45:51;;;;;;;14.10;3.40;;;;;;;29.39;35.76;99294.41;67993;1274;1016124;-70
2023/07/18 07:48:54;;;;;;;13.50;2.80;;;;;;;29.40;35.90;99294.54;68002;1274;1016462;-70
2023/07/18 07:51:57;;;;;;;18.00;3.60;;;;;;;29.28;36.01;99286.11;68035;1274;1016367;-70
2023/07/18 07:55:01;;;;;;;11.90;3.10;;;;;;;29.25;36.26;99293.31;67949;1274;1016190;-70
2023/07/18 07:58:04;;;;;;;12.10;3.60;;;;;;;29.53;36.02;99290.95;68023;1274;1016383;-67
2023/07/18 08:01:10;;;;;;;13.30;3.20;;;;;;;29.69;35.97;99292.71;68003;1274;1016130;-71
2023/07/18 08:04:13;;;;;;;14.30;4.10;;;;;;;30.13;35.98;99289.86;67958;1275;1016306;-66
2023/07/18 08:07:17;;;;;;;10.40;2.60;;;;;;;30.61;35.89;99293.70;68276;1274;1015787;-70
2023/07/18 08:10:20;;;;;;;10.40;2.80;;;;;;;29.97;34.38;99296.02;68015;1274;1016215;-66
2023/07/18 08:13:23;;;;;;;8.00;2.90;;;;;;;30.10;35.60;99298.59;67993;1275;1016099;-66
2023/07/18 08:16:27;;;;;;;12.60;3.00;;;;;;;29.91;33.86;99306.48;67971;1274;1016662;-66
2023/07/18 08:19:31;;;;;;;17.70;3.20;;;;;;;29.47;33.95;99303.02;68019;1275;1016394;-66
2023/07/18 08:22:35;;;;;;;11.20;3.30;;;;;;;29.60;34.81;99305.86;67968;1275;1016437;-66
2023/07/18 08:25:39;;;;;;;7.90;2.80;;;;;;;30.03;32.95;99306.71;67952;1275;1015853;-66
2023/07/18 08:28:42;;;;;;;16.90;3.60;;;;;;;30.16;33.09;99305.83;67893;1274;1016416;-66
2023/07/18 08:31:46;;;;;;;11.80;3.10;;;;;;;30.22;32.83;99304.88;67905;1274;1016326;-66
2023/07/18 08:34:49;;;;;;;13.50;2.80;;;;;;;29.88;33.40;99313.45;67950;1274;1016394;-65
2023/07/18 08:37:53;;;;;;;10.90;2.80;;;;;;;29.57;33.75;99304.63;67988;1274;1016432;-69
2023/07/18 08:40:58;;;;;;;8.60;2.20;;;;;;;29.50;33.57;99300.91;68020;1274;1019725;-70
2023/07/18 08:44:00;;;;;;;10.90;3.00;;;;;;;29.85;34.28;99298.03;68040;1274;1016470;-66
2023/07/18 08:47:05;;;;;;;12.20;2.80;;;;;;;30.11;33.46;99303.00;67986;1274;1016404;-65
2023/07/18 08:50:08;;;;;;;9.30;2.60;;;;;;;30.38;31.63;99306.67;67993;1274;1017038;-65
2023/07/18 08:53:11;;;;;;;11.40;2.50;;;;;;;30.22;31.94;99310.44;67984;1274;1016568;-65
2023/07/18 08:56:15;;;;;;;11.60;2.60;;;;;;;30.28;31.77;99307.54;68023;1275;1016413;-66
2023/07/18 08:59:19;;;;;;;12.80;2.70;;;;;;;30.46;32.38;99303.11;68027;1274;1016405;-65
2023/07/18 09:02:22;;;;;;;11.30;2.80;;;;;;;30.52;32.18;99310.97;67964;1274;1015663;-66
2023/07/18 09:05:25;;;;;;;9.40;2.40;;;;;;;30.26;32.07;99307.90;67934;1274;1016421;-65
2023/07/18 09:08:28;;;;;;;10.60;2.70;;;;;;;30.08;32.87;99295.31;68039;1275;1018339;-66
2023/07/18 09:11:31;;;;;;;11.00;2.80;;;;;;;30.14;32.34;99302.60;67999;1275;1016386;-65
2023/07/18 09:14:34;;;;;;;8.90;2.80;;;;;;;30.56;32.74;99292.55;68000;1275;1016482;-65
2023/07/18 09:17:37;;;;;;;10.70;2.30;;;;;;;30.62;32.06;99297.54;67969;1274;1016546;-66
2023/07/18 09:20:40;;;;;;;10.20;2.40;;;;;;;30.28;31.39;99304.06;67973;1275;1017081;-65
2023/07/18 09:23:43;;;;;;;9.70;2.70;;;;;;;29.93;31.59;99303.93;68002;1274;1016471;-65
2023/07/18 09:26:46;;;;;;;9.80;2.70;;;;;;;30.36;32.04;99297.73;68020;1275;1016490;-65
2023/07/18 09:30:06;;;;;;;9.60;2.70;;;;;;;30.90;31.30;99290.73;68039;1275;1016544;-65
2023/07/18 09:33:10;;;;;;;11.10;2.80;;;;;;;30.92;31.60;99288.96;68002;1274;1015866;-65
2023/07/18 09:36:16;;;;;;;11.40;3.00;;;;;;;30.82;31.11;99297.05;68002;1275;1016469;-69
2023/07/18 09:39:19;;;;;;;9.60;2.60;;;;;;;30.77;31.02;99298.64;68021;1274;1016448;-70
2023/07/18 09:42:23;;;;;;;14.60;2.60;;;;;;;30.92;30.77;99286.90;68029;1275;1016678;-68
2023/07/18 09:45:27;;;;;;;10.70;2.70;;;;;;;30.93;30.72;99286.35;67970;1274;1016551;-64
2023/07/18 09:48:30;;;;;;;9.90;2.50;;;;;;;30.88;30.62;99276.77;68025;1274;1016072;-66
2023/07/18 09:51:33;;;;;;;10.30;2.40;;;;;;;30.85;30.52;99269.33;68006;1274;1016580;-70
2023/07/18 09:54:37;;;;;;;11.50;2.90;;;;;;;31.08;31.31;99270.80;68009;1274;1016338;-70
2023/07/18 09:57:40;;;;;;;11.20;2.80;;;;;;;30.65;31.27;99280.48;67932;1274;1016564;-66
2023/07/18 10:00:44;;;;;;;7.40;2.40;;;;;;;31.17;31.37;99269.84;67942;1274;1016764;-71
2023/07/18 10:03:49;;;;;;;11.40;2.40;;;;;;;31.62;31.01;99272.13;67925;1274;1016595;-65
2023/07/18 10:06:55;;;;;;;10.00;2.60;;;;;;;31.82;30.37;99278.65;68039;1274;1016415;-70
2023/07/18 10:09:57;;;;;;;8.10;2.50;;;;;;;32.28;29.74;99267.40;67986;1275;1017195;-65
2023/07/18 10:13:00;;;;;;;13.40;3.10;;;;;;;31.77;30.23;99271.14;67925;1274;1016424;-65
2023/07/18 10:16:02;;;;;;;6.40;2.70;;;;;;;31.84;29.74;99258.48;68007;1275;1016681;-65
2023/07/18 10:19:05;;;;;;;7.70;2.10;;;;;;;32.24;29.41;99272.23;67957;1274;1016067;-65
2023/07/18 10:22:09;;;;;;;7.40;2.30;;;;;;;31.91;29.23;99274.16;68018;1274;1016290;-65
2023/07/18 10:25:12;;;;;;;8.80;2.10;;;;;;;32.17;29.82;99263.58;67960;1274;1016814;-65
2023/07/18 10:28:15;;;;;;;9.30;2.40;;;;;;;32.31;29.21;99254.13;68035;1274;1015996;-66
2023/07/18 10:31:18;;;;;;;12.10;2.40;;;;;;;32.01;29.17;99261.10;67977;1274;1016026;-70
2023/07/18 10:34:21;;;;;;;8.60;2.50;;;;;;;31.19;29.95;99262.77;67990;1274;1015940;-65
2023/07/18 10:37:26;;;;;;;7.60;2.40;;;;;;;31.58;29.04;99245.43;68008;1274;1016395;-66
2023/07/18 10:40:30;;;;;;;8.90;2.40;;;;;;;32.02;29.02;99245.02;68006;1274;1016392;-67
2023/07/18 10:43:33;;;;;;;9.90;2.70;;;;;;;32.21;29.63;99238.96;68022;1274;1016380;-66
2023/07/18 10:46:35;;;;;;;8.20;2.70;;;;;;;32.15;28.42;99245.33;67966;1274;1016407;-70
2023/07/18 10:49:39;;;;;;;7.60;2.40;;;;;;;32.37;28.61;99237.13;68002;1274;1016371;-69
2023/07/18 10:52:41;;;;;;;10.80;2.60;;;;;;;32.41;27.57;99238.91;68000;1274;1016100;-66
2023/07/18 10:55:45;;;;;;;12.70;2.60;;;;;;;32.37;28.02;99238.55;68037;1275;1016075;-70
2023/07/18 10:58:51;;;;;;;8.00;2.60;;;;;;;32.44;27.66;99231.69;68006;1274;1016316;-70
2023/07/18 11:01:54;;;;;;;8.60;2.10;;;;;;;32.61;28.22;99224.64;67961;1274;1016786;-65
2023/07/18 11:04:57;;;;;;;7.30;2.10;;;;;;;32.76;27.40;99236.04;67991;1274;1016469;-70
2023/07/18 11:08:02;;;;;;;7.00;2.10;;;;;;;32.59;26.79;99239.72;68016;1274;1016260;-69
2023/07/18 11:11:05;;;;;;;6.90;2.30;;;;;;;32.88;27.29;99235.73;67859;1274;1016093;-67
2023/07/18 11:14:08;;;;;;;7.80;2.30;;;;;;;32.90;25.91;99229.36;67948;1274;1016056;-66
2023/07/18 11:17:12;;;;;;;9.90;2.00;;;;;;;33.09;26.09;99216.63;67973;1274;1015950;-67
2023/07/18 11:20:15;;;;;;;6.90;2.30;;;;;;;33.13;25.72;99221.55;67975;1274;1016348;-67
2023/07/18 11:23:19;;;;;;;4.50;2.10;;;;;;;33.20;25.68;99222.73;67917;1274;1016213;-67
2023/07/18 11:26:22;;;;;;;6.50;2.20;;;;;;;33.47;26.26;99213.86;67841;1274;1016207;-66
2023/07/18 11:29:26;;;;;;;10.90;2.20;;;;;;;33.45;25.37;99210.02;67802;1274;1018924;-66
2023/07/18 11:32:29;;;;;;;8.70;2.30;;;;;;;33.23;25.49;99211.58;67928;1274;1016423;-66
2023/07/18 11:35:33;;;;;;;8.20;2.40;;;;;;;33.29;26.14;99200.08;67925;1274;1016247;-67
2023/07/18 11:38:37;;;;;;;5.40;1.90;;;;;;;33.46;25.86;99193.33;67896;1274;1016430;-67
2023/07/18 11:41:41;;;;;;;4.40;1.80;;;;;;;33.61;25.58;99199.45;67947;1274;1016459;-67
2023/07/18 11:44:44;;;;;;;8.90;1.90;;;;;;;33.71;24.90;99188.75;67924;1274;1016140;-67
2023/07/18 11:47:47;;;;;;;8.70;2.10;;;;;;;33.89;25.15;99184.45;68010;1274;1016348;-67
2023/07/18 11:50:50;;;;;;;5.60;2.10;;;;;;;33.90;24.97;99179.20;68051;1274;1016731;-67
2023/07/18 11:53:53;;;;;;;5.80;2.00;;;;;;;34.53;24.90;99175.98;68047;1274;1016605;-66
2023/07/18 11:56:57;;;;;;;7.20;1.80;;;;;;;34.47;24.79;99183.40;67967;1274;1016348;-71
2023/07/18 12:00:00;;;;;;;7.10;2.00;;;;;;;34.28;24.48;99184.61;68024;1274;1016658;-66
2023/07/18 12:03:04;;;;;;;10.20;2.00;;;;;;;33.91;24.94;99183.13;67956;1274;1016312;-66
2023/07/18 12:06:07;;;;;;;7.60;2.20;;;;;;;34.22;25.24;99176.14;67953;1274;1016371;-66
2023/07/18 12:09:11;;;;;;;7.90;2.00;;;;;;;33.93;24.39;99175.14;67973;1274;1016250;-66
2023/07/18 12:12:14;;;;;;;4.20;2.00;;;;;;;33.48;25.68;99167.48;67971;1274;1016399;-66
2023/07/18 12:15:17;;;;;;;7.70;2.30;;;;;;;33.11;26.00;99170.86;68021;1274;1016430;-71
2023/07/18 12:18:21;;;;;;;6.00;2.10;;;;;;;32.61;25.72;99174.18;68041;1274;1016143;-71
2023/07/18 12:21:23;;;;;;;4.40;1.60;;;;;;;32.29;26.44;99163.95;67954;1274;1016462;-66
2023/07/18 12:24:27;;;;;;;4.70;1.80;;;;;;;32.83;26.00;99167.15;68003;1274;1016700;-68
2023/07/18 12:27:30;;;;;;;3.80;1.50;;;;;;;32.36;24.80;99173.33;67970;1274;1016888;-66
2023/07/18 12:30:34;;;;;;;8.60;2.00;;;;;;;32.77;25.19;99158.79;68036;1274;1016303;-66
2023/07/18 12:33:38;;;;;;;7.00;1.80;;;;;;;33.27;25.09;99157.63;68034;1274;1016330;-66
2023/07/18 12:36:42;;;;;;;9.40;1.70;;;;;;;33.04;25.55;99158.23;68020;1274;1016302;-69
2023/07/18 12:39:46;;;;;;;7.10;2.10;;;;;;;33.77;25.82;99152.98;68037;1274;1016586;-66
2023/07/18 12:42:49;;;;;;;4.60;1.90;;;;;;;34.33;24.59;99144.09;68022;1274;1016233;-71
2023/07/18 12:45:53;;;;;;;5.50;1.50;;;;;;;34.51;23.81;99145.77;68001;1274;1016127;-66
2023/07/18 12:48:56;;;;;;;9.60;1.90;;;;;;;34.41;24.66;99139.39;68004;1274;1016441;-69
2023/07/18 12:51:59;;;;;;;6.50;2.00;;;;;;;34.05;24.34;99142.19;67950;1274;1016376;-66
2023/07/18 12:55:02;;;;;;;4.60;1.80;;;;;;;34.28;24.46;99138.42;68047;1274;1016485;-71
2023/07/18 12:58:06;;;;;;;7.70;2.10;;;;;;;34.33;24.20;99131.16;67990;1274;1016441;-70
2023/07/18 13:01:09;;;;;;;5.70;1.70;;;;;;;33.99;24.79;99145.67;67994;1274;1016389;-71
2023/07/18 13:04:12;;;;;;;4.80;1.90;;;;;;;33.67;24.28;99142.76;67988;1274;1016293;-66
2023/07/18 13:07:16;;;;;;;3.90;1.60;;;;;;;33.87;23.53;99141.37;67994;1274;1016673;-65
2023/07/18 13:10:19;;;;;;;3.70;1.60;;;;;;;33.75;23.52;99138.55;67975;1274;1016540;-66
2023/07/18 13:13:23;;;;;;;3.60;1.80;;;;;;;33.50;24.47;99135.72;67965;1274;1016298;-71
2023/07/18 13:16:26;;;;;;;3.40;1.80;;;;;;;33.67;24.95;99128.77;68002;1274;1016406;-71
2023/07/18 13:19:30;;;;;;;6.20;2.00;;;;;;;33.97;23.79;99127.60;67985;1274;1016837;-72
2023/07/18 13:22:33;;;;;;;8.40;1.90;;;;;;;34.25;23.82;99120.73;67912;1274;1016298;-69
2023/07/18 13:25:36;;;;;;;5.20;1.90;;;;;;;33.72;23.59;99127.64;67974;1274;1016269;-71
2023/07/18 13:28:40;;;;;;;4.90;1.80;;;;;;;34.03;22.95;99117.67;67996;1274;1016034;-67
2023/07/18 13:31:42;;;;;;;5.50;2.20;;;;;;;34.29;23.38;99114.95;67945;1274;1016548;-71
2023/07/18 13:34:45;;;;;;;5.30;1.80;;;;;;;34.48;23.81;99108.11;67986;1274;1016493;-66
2023/07/18 13:37:49;;;;;;;4.60;2.00;;;;;;;34.60;23.61;99101.66;67960;1274;1016429;-66
2023/07/18 13:40:52;;;;;;;8.30;2.30;;;;;;;34.02;23.80;99101.68;67942;1274;1016589;-71
2023/07/18 13:43:56;;;;;;;6.90;2.00;;;;;;;34.36;23.85;99096.67;68003;1274;1016382;-66
2023/07/18 13:46:59;;;;;;;7.30;2.20;;;;;;;34.51;23.49;99090.27;67905;1274;1016497;-71
2023/07/18 13:50:03;;;;;;;7.80;2.20;;;;;;;34.56;23.86;99086.05;68025;1274;1016445;-66
2023/07/18 13:53:06;;;;;;;9.10;1.90;;;;;;;34.69;23.52;99088.48;67952;1274;1016400;-66
2023/07/18 13:56:09;;;;;;;7.00;2.40;;;;;;;34.51;22.85;99084.77;67984;1274;1016313;-66